Time;durP1;ratioP1;P1;durP2;ratioP2;P2;SDS_P1;SDS_P2;PMS_P1;PMS_P2;Temp;Humidity;BMP_temperature;BMP_pressure;BME280_temperature;BME280_humidity;BME280_pressure;Samples;Min_cycle;Max_cycle;Signal;HPM_P1;HPM_P2
2023/02/09 00:01:31;;;;;;;25.33;14.57;;;;;;;1.47;67.59;103298.75;6241128;28;20796;-72
2023/02/09 00:04:52;;;;;;;26.17;17.57;;;;;;;1.56;67.09;103293.31;6233383;28;20256;-72
2023/02/09 00:08:13;;;;;;;22.17;15.47;;;;;;;1.31;68.23;103283.00;6229183;28;20231;-73
2023/02/09 00:15:13;;;;;;;27.10;17.43;;;;;;;1.53;67.74;103280.06;6234920;28;20235;-72
2023/02/09 00:18:34;;;;;;;24.67;13.00;;;;;;;1.27;68.19;103275.97;6220375;28;20657;-72
2023/02/09 00:21:58;;;;;;;25.03;16.50;;;;;;;0.99;68.97;103270.09;6238260;28;20231;-73
2023/02/09 00:25:19;;;;;;;22.97;14.23;;;;;;;1.38;68.19;103264.31;6238285;28;20693;-73
2023/02/09 00:28:41;;;;;;;27.30;16.77;;;;;;;1.07;68.80;103262.03;6241888;28;20334;-73
2023/02/09 00:32:02;;;;;;;21.77;14.97;;;;;;;1.28;69.22;103256.47;6233968;28;20232;-73
2023/02/09 00:35:23;;;;;;;30.13;16.57;;;;;;;1.40;68.42;103249.22;6236338;28;20233;-73
2023/02/09 00:38:44;;;;;;;18.37;14.60;;;;;;;0.91;69.86;103244.53;6232656;28;20224;-73
2023/02/09 00:42:05;;;;;;;19.60;15.07;;;;;;;0.72;71.77;103236.75;6238238;28;20319;-73
2023/02/09 00:45:28;;;;;;;23.00;17.37;;;;;;;0.90;70.15;103242.78;6240389;28;20227;-72
2023/02/09 00:48:49;;;;;;;25.03;17.40;;;;;;;1.10;69.40;103236.34;6231348;28;20733;-73
2023/02/09 00:52:10;;;;;;;26.10;14.10;;;;;;;1.30;68.87;103229.00;6224792;28;20654;-73
2023/02/09 00:55:31;;;;;;;22.93;14.70;;;;;;;1.03;69.50;103224.03;6232277;28;20236;-73
2023/02/09 00:58:52;;;;;;;22.67;15.97;;;;;;;0.82;70.46;103221.59;6240283;28;20279;-72
2023/02/09 01:02:14;;;;;;;20.97;13.23;;;;;;;1.16;69.50;103211.47;6231699;28;20315;-72
2023/02/09 01:05:38;;;;;;;27.33;15.87;;;;;;;1.40;68.48;103217.34;6227326;28;20231;-73
2023/02/09 01:09:00;;;;;;;22.57;13.90;;;;;;;1.52;67.88;103222.47;6236318;28;20223;-73
2023/02/09 01:12:20;;;;;;;26.50;17.07;;;;;;;1.32;67.95;103210.38;6221737;28;20231;-73
2023/02/09 01:15:42;;;;;;;22.53;14.63;;;;;;;1.72;67.46;103208.94;6230243;28;22603;-72
2023/02/09 01:19:04;;;;;;;26.67;16.63;;;;;;;1.85;66.72;103199.88;6222497;28;20267;-73
2023/02/09 01:22:25;;;;;;;23.50;14.60;;;;;;;2.02;65.74;103205.81;6222207;28;20236;-73
2023/02/09 01:25:46;;;;;;;24.00;17.63;;;;;;;1.81;66.74;103197.28;6239024;28;20237;-73
2023/02/09 01:29:06;;;;;;;19.53;13.70;;;;;;;1.91;66.26;103194.44;6239531;28;20223;-73
2023/02/09 01:32:27;;;;;;;20.83;15.17;;;;;;;1.84;66.00;103186.56;6224150;28;22939;-73
2023/02/09 01:35:51;;;;;;;22.07;14.77;;;;;;;1.45;67.89;103188.94;6247624;28;20227;-73
2023/02/09 01:39:13;;;;;;;22.13;14.80;;;;;;;1.63;67.24;103178.97;6238432;28;20307;-72
2023/02/09 01:42:34;;;;;;;25.23;13.20;;;;;;;1.72;66.58;103184.13;6225363;28;20239;-74
2023/02/09 01:45:55;;;;;;;21.53;15.27;;;;;;;1.25;68.50;103176.84;6226818;28;20232;-73
2023/02/09 01:49:18;;;;;;;21.43;12.80;;;;;;;1.77;66.44;103161.00;6233534;28;20239;-73
2023/02/09 01:52:44;;;;;;;18.97;13.13;;;;;;;1.55;67.36;103164.00;6228953;28;20232;-73
2023/02/09 01:56:08;;;;;;;20.87;13.70;;;;;;;1.90;65.81;103168.75;6239613;28;20231;-73
2023/02/09 01:59:32;;;;;;;23.93;14.53;;;;;;;1.54;66.62;103159.56;6220667;28;20811;-72
2023/02/09 02:02:57;;;;;;;27.43;16.77;;;;;;;1.56;66.73;103163.06;6220017;28;20251;-73
2023/02/09 02:06:19;;;;;;;26.10;16.23;;;;;;;1.36;67.82;103159.84;6245807;28;20231;-73
2023/02/09 02:09:42;;;;;;;20.70;16.03;;;;;;;0.86;69.63;103149.00;6219061;28;20236;-73
2023/02/09 02:13:03;;;;;;;25.17;15.63;;;;;;;1.20;68.28;103145.03;6224033;28;20607;-73
2023/02/09 02:16:38;;;;;;;19.50;14.17;;;;;;;0.85;70.13;103141.06;6236184;28;20232;-73
2023/02/09 02:20:37;;;;;;;22.10;14.83;;;;;;;1.34;68.24;103135.06;6215873;28;20707;-73
2023/02/09 02:24:30;;;;;;;17.70;13.37;;;;;;;1.38;68.20;103126.16;6236879;28;20798;-73
2023/02/09 02:28:05;;;;;;;21.10;14.03;;;;;;;1.18;68.42;103128.22;6224677;28;20236;-73
2023/02/09 02:31:58;;;;;;;23.37;17.00;;;;;;;1.41;67.91;103127.91;6229654;28;20224;-73
2023/02/09 02:35:29;;;;;;;22.23;13.90;;;;;;;1.21;68.41;103128.16;6221356;28;20228;-73
2023/02/09 02:38:55;;;;;;;23.70;16.03;;;;;;;0.74;70.74;103126.16;6226310;28;20345;-72
2023/02/09 02:46:08;;;;;;;16.63;13.57;;;;;;;0.79;71.28;103116.34;6232603;28;20871;-72
2023/02/09 02:49:37;;;;;;;23.93;14.27;;;;;;;0.83;70.18;103107.44;6239172;28;20343;-73
2023/02/09 02:53:01;;;;;;;20.23;14.10;;;;;;;1.27;69.22;103113.94;6231920;28;20234;-73
2023/02/09 02:56:26;;;;;;;21.20;11.50;;;;;;;0.65;71.09;103109.44;6244917;28;20224;-72
2023/02/09 02:59:53;;;;;;;19.20;13.97;;;;;;;0.95;69.80;103103.75;6236419;28;20231;-72
2023/02/09 03:03:18;;;;;;;22.20;14.30;;;;;;;1.06;69.18;103100.97;6231990;28;20651;-72
2023/02/09 03:06:40;;;;;;;20.53;14.90;;;;;;;1.40;68.34;103096.91;6238998;28;20240;-73
2023/02/09 03:10:01;;;;;;;28.80;17.07;;;;;;;1.21;68.39;103096.28;6243162;28;22249;-72
2023/02/09 03:13:37;;;;;;;21.07;14.50;;;;;;;0.74;69.73;103096.97;6233040;28;20604;-72
2023/02/09 03:17:10;;;;;;;21.13;13.50;;;;;;;1.02;69.69;103092.16;6232953;28;20239;-72
2023/02/09 03:20:41;;;;;;;23.20;13.97;;;;;;;1.58;66.98;103081.56;6223458;28;20311;-73
2023/02/09 03:24:06;;;;;;;28.17;14.97;;;;;;;1.00;68.50;103085.13;6229468;28;20227;-72
2023/02/09 03:27:31;;;;;;;17.03;11.63;;;;;;;0.66;70.23;103076.72;6232961;28;20239;-73
2023/02/09 03:30:53;;;;;;;24.33;15.17;;;;;;;0.89;69.91;103069.34;6247077;28;20229;-73
2023/02/09 03:34:15;;;;;;;24.17;14.93;;;;;;;1.25;68.09;103052.84;6243209;28;20231;-73
2023/02/09 03:37:36;;;;;;;19.27;14.27;;;;;;;1.25;68.09;103059.97;6228761;28;20232;-73
2023/02/09 03:40:58;;;;;;;23.87;14.83;;;;;;;1.20;67.50;103051.19;6257687;28;20239;-73
2023/02/09 03:44:28;;;;;;;14.80;11.10;;;;;;;1.06;68.99;103054.06;6250556;28;20231;-73
2023/02/09 03:47:49;;;;;;;18.60;13.37;;;;;;;0.97;68.56;103048.88;6226226;28;20314;-73
2023/02/09 03:51:09;;;;;;;19.17;12.43;;;;;;;1.39;67.24;103042.03;6233336;28;20509;-73
2023/02/09 03:54:31;;;;;;;15.70;11.27;;;;;;;1.51;67.24;103039.16;6242238;28;20227;-73
2023/02/09 03:57:54;;;;;;;19.90;12.73;;;;;;;0.88;68.73;103037.50;6220100;28;20242;-73
2023/02/09 04:01:14;;;;;;;16.53;11.40;;;;;;;0.77;69.14;103042.97;6238751;28;20255;-73
2023/02/09 04:04:36;;;;;;;17.60;12.70;;;;;;;1.10;68.10;103030.97;6232579;28;20254;-73
2023/02/09 04:07:59;;;;;;;13.30;10.77;;;;;;;1.23;67.78;103032.56;6230066;28;20609;-74
2023/02/09 04:11:20;;;;;;;17.27;12.27;;;;;;;1.53;67.59;103022.28;6245296;28;20272;-73
2023/02/09 04:14:42;;;;;;;20.53;11.63;;;;;;;1.35;67.94;103024.38;6227094;28;20240;-73
2023/02/09 04:18:03;;;;;;;25.27;14.53;;;;;;;1.21;67.51;103026.38;6235048;28;20299;-72
2023/02/09 04:21:24;;;;;;;21.50;14.20;;;;;;;0.69;69.47;103016.50;6241392;28;20232;-73
2023/02/09 04:24:45;;;;;;;19.83;13.50;;;;;;;0.90;69.85;103019.78;6233088;28;20228;-73
2023/02/09 04:28:05;;;;;;;14.13;10.90;;;;;;;1.23;67.40;103012.16;6235384;28;20314;-73
2023/02/09 04:31:28;;;;;;;22.40;12.67;;;;;;;1.62;66.33;103010.63;6230407;28;20228;-72
2023/02/09 04:34:48;;;;;;;20.83;14.33;;;;;;;1.31;66.95;103004.97;6240512;28;20229;-73
2023/02/09 04:38:09;;;;;;;18.47;12.87;;;;;;;1.30;67.49;102997.00;6237598;28;20309;-73
2023/02/09 04:41:30;;;;;;;14.63;11.10;;;;;;;1.18;68.23;102987.47;6248751;28;20236;-73
2023/02/09 04:44:50;;;;;;;20.70;12.40;;;;;;;1.17;67.75;102983.03;6233804;28;20239;-72
2023/02/09 04:48:14;;;;;;;17.03;10.77;;;;;;;0.90;68.24;102988.78;6239986;28;20232;-73
2023/02/09 04:51:36;;;;;;;19.30;12.77;;;;;;;0.92;67.83;102980.81;6245649;28;20228;-73
2023/02/09 04:54:57;;;;;;;17.23;10.27;;;;;;;0.89;67.51;102981.72;6245963;28;20236;-73
2023/02/09 05:01:58;;;;;;;19.17;9.57;;;;;;;0.84;67.09;102975.59;6241317;28;20682;-73
2023/02/09 05:05:20;;;;;;;13.67;9.73;;;;;;;1.03;66.81;102963.81;6241341;28;20227;-73
2023/02/09 05:08:41;;;;;;;15.87;11.33;;;;;;;1.04;65.97;102976.19;6229329;28;20264;-73
2023/02/09 05:12:02;;;;;;;17.60;11.60;;;;;;;1.05;66.28;102983.25;6229974;28;20219;-73
2023/02/09 05:15:23;;;;;;;17.77;11.37;;;;;;;1.16;65.59;102980.41;6220256;28;20232;-73
2023/02/09 05:18:44;;;;;;;15.57;9.33;;;;;;;1.52;64.64;102978.00;6220805;28;20633;-73
2023/02/09 05:22:06;;;;;;;30.50;13.40;;;;;;;1.25;65.65;102964.34;6229445;28;20259;-73
2023/02/09 05:25:28;;;;;;;20.43;10.67;;;;;;;1.47;64.67;102953.31;6235155;28;20660;-73
2023/02/09 05:28:49;;;;;;;19.90;13.13;;;;;;;1.36;64.66;102943.75;6231943;28;20223;-73
2023/02/09 05:32:09;;;;;;;18.60;11.37;;;;;;;1.08;65.80;102956.66;6229074;28;22535;-73
2023/02/09 05:35:30;;;;;;;19.97;13.17;;;;;;;1.32;64.65;102958.88;6234327;28;20224;-72
2023/02/09 05:38:52;;;;;;;13.50;7.43;;;;;;;1.50;64.36;102937.28;6238372;28;20235;-73
2023/02/09 05:42:17;;;;;;;15.97;10.80;;;;;;;1.66;62.99;102945.88;6228971;28;21910;-73
2023/02/09 05:45:37;;;;;;;23.60;10.80;;;;;;;1.69;63.62;102950.25;6236031;28;20669;-73
2023/02/09 05:48:58;;;;;;;15.20;11.17;;;;;;;1.81;63.20;102961.53;6228862;28;20231;-74
2023/02/09 05:52:20;;;;;;;12.97;8.97;;;;;;;1.53;63.64;102974.44;6230416;28;20320;-73
2023/02/09 05:55:42;;;;;;;15.63;8.87;;;;;;;2.01;62.17;102970.00;6228123;28;20238;-73
2023/02/09 05:59:03;;;;;;;13.57;9.47;;;;;;;2.13;61.18;102980.38;6233449;28;20228;-73
2023/02/09 06:02:24;;;;;;;18.67;10.80;;;;;;;1.76;62.43;102971.38;6210707;28;20232;-73
2023/02/09 06:05:45;;;;;;;13.87;8.67;;;;;;;2.18;61.73;102972.31;6240253;28;20236;-73
2023/02/09 06:09:05;;;;;;;13.20;8.13;;;;;;;2.37;60.43;102979.00;6226898;28;20235;-73
2023/02/09 06:12:27;;;;;;;12.90;9.40;;;;;;;2.54;59.68;102983.97;6212652;28;20228;-73
2023/02/09 06:15:48;;;;;;;12.80;8.87;;;;;;;2.70;59.52;102980.94;6237763;28;20224;-74
2023/02/09 06:19:12;;;;;;;15.10;9.17;;;;;;;2.80;59.35;102993.13;6222300;28;20315;-72
2023/02/09 06:22:33;;;;;;;14.77;10.40;;;;;;;2.87;58.94;102992.06;6215700;28;20675;-73
2023/02/09 06:25:54;;;;;;;16.27;11.17;;;;;;;2.52;59.36;102999.97;6244331;28;20236;-72
2023/02/09 06:29:17;;;;;;;17.13;12.07;;;;;;;2.71;59.01;103000.44;6228511;28;20567;-73
2023/02/09 06:32:38;;;;;;;13.67;8.07;;;;;;;2.73;58.96;103001.28;6219103;28;20676;-73
2023/02/09 06:35:59;;;;;;;14.40;9.23;;;;;;;2.70;59.50;102998.69;6240550;28;21166;-73
2023/02/09 06:39:20;;;;;;;13.57;9.27;;;;;;;2.85;59.06;102999.22;6236181;28;20620;-72
2023/02/09 06:42:46;;;;;;;15.77;11.00;;;;;;;2.97;58.76;102998.06;6221167;28;20275;-72
2023/02/09 06:46:10;;;;;;;11.90;8.13;;;;;;;2.32;62.59;102996.84;6237167;28;20232;-65
2023/02/09 06:49:30;;;;;;;17.77;10.10;;;;;;;2.04;62.42;102980.59;6221359;28;20264;-72
2023/02/09 06:52:52;;;;;;;17.67;9.53;;;;;;;2.01;61.90;102979.75;6233342;28;20251;-71
2023/02/09 06:56:13;;;;;;;10.40;8.33;;;;;;;2.60;63.72;102982.03;6236131;28;20232;-72
2023/02/09 06:59:34;;;;;;;17.27;10.13;;;;;;;2.42;61.02;102971.78;6232978;28;20773;-73
2023/02/09 07:02:57;;;;;;;14.93;8.37;;;;;;;2.32;60.93;102972.88;6219010;28;20318;-72
2023/02/09 07:06:20;;;;;;;14.63;9.27;;;;;;;2.33;60.80;102970.22;6231968;28;20239;-71
2023/02/09 07:09:41;;;;;;;20.70;9.97;;;;;;;2.38;60.42;102976.31;6236486;28;20542;-72
2023/02/09 07:13:02;;;;;;;13.13;8.83;;;;;;;1.91;61.28;102981.72;6214886;28;20831;-70
2023/02/09 07:16:23;;;;;;;14.60;8.27;;;;;;;2.14;61.12;102978.59;6233260;28;20236;-70
2023/02/09 07:19:45;;;;;;;15.27;8.27;;;;;;;2.07;60.88;102980.50;6237954;28;20598;-71
2023/02/09 07:23:06;;;;;;;15.67;9.03;;;;;;;2.12;60.31;102978.63;6231053;28;20648;-71
2023/02/09 07:26:27;;;;;;;12.87;7.77;;;;;;;2.39;59.36;102972.75;6243451;28;20235;-72
2023/02/09 07:29:48;;;;;;;15.23;7.97;;;;;;;2.31;59.12;102966.72;6242617;28;20232;-72
2023/02/09 07:33:09;;;;;;;13.00;8.13;;;;;;;2.01;59.24;102977.09;6233239;28;20235;-74
2023/02/09 07:36:31;;;;;;;12.17;7.63;;;;;;;2.53;58.26;102971.56;6251683;28;20581;-70
2023/02/09 07:39:52;;;;;;;12.33;7.83;;;;;;;2.41;58.11;102986.91;6238874;28;20601;-71
2023/02/09 07:43:13;;;;;;;8.67;6.33;;;;;;;2.14;58.82;102981.25;6228843;28;20267;-71
2023/02/09 07:46:35;;;;;;;14.40;8.57;;;;;;;2.69;57.75;102979.16;6240106;28;20228;-71
2023/02/09 07:49:56;;;;;;;11.77;6.33;;;;;;;2.92;56.09;102991.97;6228122;28;20327;-70
2023/02/09 07:53:19;;;;;;;13.73;9.03;;;;;;;2.58;56.78;102991.84;6230183;28;20530;-72
2023/02/09 07:56:41;;;;;;;16.73;9.47;;;;;;;2.60;57.12;102998.03;6242092;28;20225;-71
2023/02/09 08:00:02;;;;;;;9.17;8.13;;;;;;;2.59;57.02;102998.06;6231287;28;20236;-70
2023/02/09 08:03:24;;;;;;;11.00;8.47;;;;;;;3.01;55.64;103002.41;6246366;28;20810;-68
2023/02/09 08:06:46;;;;;;;10.30;7.63;;;;;;;2.86;55.34;102989.44;6241084;28;20227;-70
2023/02/09 08:10:09;;;;;;;10.40;6.67;;;;;;;3.06;54.83;103005.84;6225756;28;20237;-73
2023/02/09 08:13:36;;;;;;;13.40;8.17;;;;;;;3.35;54.27;102994.47;6231599;28;20224;-69
2023/02/09 08:20:36;;;;;;;9.83;7.73;;;;;;;2.77;53.89;102994.97;6239119;28;20251;-72
2023/02/09 08:23:58;;;;;;;10.93;7.13;;;;;;;3.58;52.88;102992.09;6242730;28;20240;-71
2023/02/09 08:27:22;;;;;;;11.63;7.97;;;;;;;3.17;53.09;102998.47;6236619;28;20242;-71
2023/02/09 08:30:43;;;;;;;7.53;5.53;;;;;;;3.06;53.44;103001.41;6233084;28;20235;-75
2023/02/09 08:34:03;;;;;;;7.93;6.37;;;;;;;2.99;52.85;102985.56;6231233;28;20231;-72
2023/02/09 08:37:25;;;;;;;9.77;5.63;;;;;;;3.27;52.49;102986.69;6223993;28;20240;-71
2023/02/09 08:40:46;;;;;;;11.10;6.00;;;;;;;3.31;51.50;102998.13;6247741;28;20229;-72
2023/02/09 08:44:08;;;;;;;10.60;6.97;;;;;;;3.47;51.34;102976.38;6241969;28;20243;-71
2023/02/09 08:47:29;;;;;;;13.63;7.00;;;;;;;3.46;51.26;102982.63;6229992;28;20228;-72
2023/02/09 08:50:50;;;;;;;11.10;5.23;;;;;;;3.29;51.34;102997.28;6258217;28;20247;-72
2023/02/09 08:54:11;;;;;;;7.90;4.37;;;;;;;3.55;50.70;102987.72;6249313;28;20446;-70
2023/02/09 08:57:32;;;;;;;8.40;5.60;;;;;;;3.62;50.51;102991.97;6221904;28;20338;-74
2023/02/09 09:00:55;;;;;;;7.03;5.53;;;;;;;4.07;49.40;102978.31;6243999;28;20236;-73
2023/02/09 09:04:16;;;;;;;9.93;4.67;;;;;;;4.00;48.76;102983.81;6224181;28;20236;-72
2023/02/09 09:07:37;;;;;;;7.63;5.83;;;;;;;3.89;49.97;102983.25;6235972;28;20236;-72
2023/02/09 09:10:58;;;;;;;8.13;5.63;;;;;;;4.33;48.52;102978.44;6235415;28;20235;-73
2023/02/09 09:14:19;;;;;;;9.47;4.93;;;;;;;4.86;47.22;102972.31;6232161;28;20255;-72
2023/02/09 09:17:41;;;;;;;9.37;6.47;;;;;;;5.97;45.13;102964.09;6205027;28;20628;-74
2023/02/09 09:21:02;;;;;;;7.60;5.97;;;;;;;6.32;43.46;102951.16;6243363;28;20626;-74
2023/02/09 09:24:27;;;;;;;8.77;5.17;;;;;;;8.18;39.81;102950.47;6242852;28;20231;-71
2023/02/09 09:27:47;;;;;;;11.67;6.43;;;;;;;6.75;42.62;102976.31;6232861;28;20243;-71
2023/02/09 09:31:09;;;;;;;6.27;4.73;;;;;;;7.62;41.55;102953.84;6233490;28;20255;-71
2023/02/09 09:34:31;;;;;;;6.67;5.07;;;;;;;7.14;41.58;102929.09;6237096;28;20234;-72
2023/02/09 09:37:51;;;;;;;5.93;4.40;;;;;;;7.58;39.62;102941.50;6228550;28;20239;-70
2023/02/09 09:41:22;;;;;;;7.40;5.10;;;;;;;8.31;38.75;102924.81;6238741;28;20334;-71
2023/02/09 09:44:44;;;;;;;10.37;5.60;;;;;;;7.46;40.47;102927.75;6234793;28;20512;-71
2023/02/09 09:48:07;;;;;;;11.87;5.27;;;;;;;7.88;39.97;102920.50;6221922;28;20530;-69
2023/02/09 09:51:36;;;;;;;10.20;4.87;;;;;;;9.60;35.76;102912.94;6237969;28;20231;-72
2023/02/09 09:55:00;;;;;;;7.93;6.13;;;;;;;7.26;40.57;102899.97;6235962;28;20318;-71
2023/02/09 09:58:21;;;;;;;11.70;5.03;;;;;;;6.30;42.38;102912.84;6237020;28;20220;-72
2023/02/09 10:01:42;;;;;;;8.23;6.00;;;;;;;7.59;41.10;102919.13;6250931;28;20239;-71
2023/02/09 10:05:15;;;;;;;6.97;5.13;;;;;;;8.37;39.16;102933.47;6248164;28;20232;-73
2023/02/09 10:08:42;;;;;;;6.13;4.03;;;;;;;9.04;37.24;102925.72;6235069;28;20232;-72
2023/02/09 10:12:16;;;;;;;12.70;7.30;;;;;;;9.75;36.21;102923.84;6239029;28;20539;-72
2023/02/09 10:15:37;;;;;;;7.37;5.00;;;;;;;8.91;36.51;102912.97;6220786;28;20842;-74
2023/02/09 10:19:00;;;;;;;8.47;5.23;;;;;;;8.58;38.03;102916.31;6233074;28;20246;-68
2023/02/09 10:22:21;;;;;;;9.03;5.93;;;;;;;8.26;39.43;102906.22;6224508;28;20228;-73
2023/02/09 10:25:54;;;;;;;6.63;4.50;;;;;;;7.96;40.34;102902.22;6240538;28;20265;-72
2023/02/09 10:29:25;;;;;;;6.37;5.57;;;;;;;8.31;39.92;102900.63;6239171;28;20318;-71
2023/02/09 10:32:46;;;;;;;7.43;5.47;;;;;;;9.26;37.46;102912.06;6231694;28;20234;-70
2023/02/09 10:36:22;;;;;;;7.87;5.20;;;;;;;9.26;37.33;102931.75;6244817;28;20256;-74
2023/02/09 10:39:44;;;;;;;8.70;4.87;;;;;;;8.63;38.28;102922.38;6246661;28;20248;-72
2023/02/09 10:43:20;;;;;;;6.93;4.23;;;;;;;9.16;38.29;102884.72;6236905;28;20231;-71
2023/02/09 10:46:41;;;;;;;6.63;5.00;;;;;;;8.89;38.04;102896.03;6244390;28;20224;-71
2023/02/09 10:50:14;;;;;;;10.77;6.80;;;;;;;10.38;36.55;102899.72;6236700;28;20223;-71
2023/02/09 10:53:37;;;;;;;19.37;7.43;;;;;;;9.14;38.05;102909.97;6221361;28;20609;-70
2023/02/09 10:56:58;;;;;;;6.60;5.37;;;;;;;9.89;37.20;102924.00;6229592;28;20311;-70
2023/02/09 11:00:31;;;;;;;6.93;5.30;;;;;;;10.17;36.88;102921.59;6231265;28;20235;-70
2023/02/09 11:04:01;;;;;;;8.27;6.70;;;;;;;10.68;36.01;102917.84;6226578;28;20235;-70
2023/02/09 11:07:27;;;;;;;7.90;4.90;;;;;;;11.15;35.02;102897.06;6222183;28;20239;-70
2023/02/09 11:11:01;;;;;;;11.30;5.77;;;;;;;9.39;38.24;102914.03;6240270;28;20331;-70
2023/02/09 11:14:22;;;;;;;6.67;4.63;;;;;;;9.03;38.51;102909.66;6243928;28;20224;-70
2023/02/09 11:17:51;;;;;;;7.40;4.63;;;;;;;7.96;41.19;102938.03;6227843;28;20239;-70
2023/02/09 11:21:17;;;;;;;8.40;5.67;;;;;;;9.04;39.17;102925.72;6248614;28;21578;-68
2023/02/09 11:24:59;;;;;;;10.70;6.47;;;;;;;7.76;41.74;102927.28;6225227;28;20232;-70
2023/02/09 11:28:33;;;;;;;7.20;5.10;;;;;;;7.97;42.04;102937.06;6233410;28;20229;-70
2023/02/09 11:32:04;;;;;;;9.57;5.57;;;;;;;8.89;40.17;102920.22;6231595;28;20227;-74
2023/02/09 11:35:43;;;;;;;8.30;5.83;;;;;;;7.92;41.66;102936.41;6234696;28;20228;-73
2023/02/09 11:39:13;;;;;;;7.50;5.20;;;;;;;8.67;39.85;102929.34;6232945;28;20885;-72
2023/02/09 11:42:45;;;;;;;7.20;5.63;;;;;;;10.16;37.86;102917.13;6224214;28;20228;-73
2023/02/09 11:46:14;;;;;;;9.30;6.27;;;;;;;8.17;41.65;102917.38;6242144;28;20561;-74
2023/02/09 11:49:44;;;;;;;11.40;5.27;;;;;;;7.37;43.31;102920.97;6250338;28;20227;-74
2023/02/09 11:53:18;;;;;;;6.27;4.97;;;;;;;8.10;42.07;102910.53;6234145;28;20243;-73
2023/02/09 11:56:42;;;;;;;5.60;4.50;;;;;;;8.06;42.12;102925.91;6242858;28;20620;-75
2023/02/09 12:00:07;;;;;;;9.47;5.73;;;;;;;8.48;42.05;102915.03;6236073;28;20318;-71
2023/02/09 12:03:37;;;;;;;8.07;6.93;;;;;;;7.08;43.99;102926.69;6221056;28;20235;-75
2023/02/09 12:07:02;;;;;;;7.70;6.03;;;;;;;7.72;43.76;102917.63;6232968;28;20228;-70
2023/02/09 12:10:28;;;;;;;9.57;5.93;;;;;;;9.30;40.95;102913.66;6199234;28;20610;-69
2023/02/09 12:14:01;;;;;;;9.33;5.13;;;;;;;7.99;42.79;102916.38;6236163;28;20230;-72
2023/02/09 12:17:29;;;;;;;5.40;4.43;;;;;;;8.11;43.56;102916.78;6233329;28;20267;-71
2023/02/09 12:20:53;;;;;;;9.13;6.33;;;;;;;7.58;44.53;102905.75;6239382;28;20258;-70
2023/02/09 12:24:33;;;;;;;8.67;5.37;;;;;;;6.68;46.02;102914.03;6231427;28;20243;-71
2023/02/09 12:28:37;;;;;;;12.10;3.73;;;;;;;6.63;46.55;102926.75;6234582;28;20232;-71
2023/02/09 12:32:25;;;;;;;9.47;5.37;;;;;;;7.23;46.04;102899.22;6239030;28;20286;-71
2023/02/09 12:35:59;;;;;;;7.57;4.07;;;;;;;6.75;46.69;102911.97;6234551;28;20237;-74
2023/02/09 12:39:23;;;;;;;6.60;5.70;;;;;;;7.12;46.71;102913.09;6238992;28;20224;-73
2023/02/09 12:42:45;;;;;;;6.73;5.93;;;;;;;6.39;48.33;102904.47;6220197;28;20601;-71
2023/02/09 12:46:46;;;;;;;8.00;5.77;;;;;;;6.57;48.04;102910.03;6239839;28;20614;-70
2023/02/09 12:50:22;;;;;;;11.17;5.57;;;;;;;6.16;49.23;102917.88;6248794;28;20227;-71
2023/02/09 12:53:49;;;;;;;9.13;4.87;;;;;;;6.58;48.04;102912.66;6236566;28;20235;-72
2023/02/09 12:57:53;;;;;;;9.50;6.73;;;;;;;6.61;48.33;102907.19;6236843;28;20649;-74
2023/02/09 13:01:15;;;;;;;4.83;3.93;;;;;;;6.28;49.47;102900.44;6234192;28;20268;-72
2023/02/09 13:04:42;;;;;;;15.37;6.03;;;;;;;6.11;49.95;102886.84;6234861;28;20231;-71
2023/02/09 13:08:12;;;;;;;8.47;6.37;;;;;;;6.57;49.08;102884.09;6226278;28;20724;-72
2023/02/09 13:11:43;;;;;;;8.47;5.13;;;;;;;6.55;49.43;102880.59;6236799;28;20609;-75
2023/02/09 13:15:11;;;;;;;7.17;6.00;;;;;;;6.51;49.89;102875.47;6237335;28;20605;-72
2023/02/09 13:18:41;;;;;;;11.03;6.20;;;;;;;6.06;50.45;102865.59;6229139;28;20367;-70
2023/02/09 13:22:22;;;;;;;7.73;5.43;;;;;;;6.03;50.65;102857.66;6238009;28;21869;-69
2023/02/09 13:25:43;;;;;;;9.20;5.63;;;;;;;5.93;50.95;102848.25;6233147;28;20502;-71
2023/02/09 13:29:09;;;;;;;6.60;5.13;;;;;;;6.40;50.31;102855.28;6235748;28;20239;-70
2023/02/09 13:32:38;;;;;;;9.77;6.30;;;;;;;6.58;49.56;102866.22;6220923;28;20270;-71
2023/02/09 13:36:17;;;;;;;6.93;5.50;;;;;;;6.12;50.93;102860.00;6236237;28;20244;-70
2023/02/09 13:39:42;;;;;;;11.90;7.43;;;;;;;6.99;48.82;102849.28;6244063;28;21039;-71
2023/02/09 13:43:14;;;;;;;10.87;6.20;;;;;;;6.31;50.93;102847.66;6222191;28;21186;-69
2023/02/09 13:46:35;;;;;;;8.00;6.20;;;;;;;6.26;50.62;102851.41;6238418;28;20247;-69
2023/02/09 13:50:02;;;;;;;9.93;6.13;;;;;;;6.72;50.64;102853.13;6209860;28;20610;-70
2023/02/09 13:53:25;;;;;;;7.97;6.73;;;;;;;6.90;50.47;102842.53;6232922;28;20310;-70
2023/02/09 13:56:48;;;;;;;12.90;5.23;;;;;;;6.67;50.60;102839.94;6246096;28;20326;-71
2023/02/09 14:00:16;;;;;;;7.80;6.30;;;;;;;6.75;50.46;102839.63;6239640;28;20240;-72
2023/02/09 14:03:44;;;;;;;9.07;5.47;;;;;;;7.12;49.48;102840.69;6230862;28;20262;-70
2023/02/09 14:07:09;;;;;;;10.67;7.20;;;;;;;6.87;50.51;102831.94;6234078;28;20742;-69
2023/02/09 14:10:34;;;;;;;9.83;5.70;;;;;;;6.85;50.51;102839.16;6222375;28;20224;-69
2023/02/09 14:14:00;;;;;;;13.40;6.40;;;;;;;6.81;50.47;102850.97;6229624;28;20234;-69
2023/02/09 14:17:24;;;;;;;8.07;7.27;;;;;;;6.63;51.21;102857.09;6236460;28;20248;-70
2023/02/09 14:20:59;;;;;;;9.10;6.37;;;;;;;6.70;51.35;102857.69;6236247;28;20315;-70
2023/02/09 14:24:21;;;;;;;8.27;6.00;;;;;;;6.63;51.67;102851.72;6232065;28;20219;-70
2023/02/09 14:27:46;;;;;;;6.43;5.67;;;;;;;7.19;50.32;102847.53;6236215;28;20244;-71
2023/02/09 14:31:18;;;;;;;6.03;5.53;;;;;;;6.64;51.97;102869.53;6246195;28;20340;-71
2023/02/09 14:34:40;;;;;;;7.83;7.03;;;;;;;6.82;51.47;102867.91;6240670;28;20758;-71
2023/02/09 14:38:02;;;;;;;10.77;8.27;;;;;;;6.32;52.29;102888.72;6236372;28;20235;-72
2023/02/09 14:41:30;;;;;;;9.80;6.30;;;;;;;6.20;53.11;102879.31;6249654;28;20502;-70
2023/02/09 14:44:55;;;;;;;14.27;6.83;;;;;;;6.70;51.51;102881.78;6230155;28;20504;-69
2023/02/09 14:48:19;;;;;;;11.27;7.17;;;;;;;6.42;52.24;102884.72;6223336;28;20247;-72
2023/02/09 14:51:40;;;;;;;9.47;7.23;;;;;;;6.29;52.53;102881.66;6243602;28;20252;-70
2023/02/09 14:55:03;;;;;;;8.83;7.13;;;;;;;6.58;51.99;102883.19;6246685;28;20225;-70
2023/02/09 14:58:26;;;;;;;9.13;6.90;;;;;;;6.33;52.50;102891.31;6219456;28;20601;-72
2023/02/09 15:01:49;;;;;;;9.93;7.60;;;;;;;6.30;52.36;102904.81;6243417;28;20240;-72
2023/02/09 15:05:11;;;;;;;11.40;6.20;;;;;;;6.06;52.86;102903.06;6232299;28;20264;-70
2023/02/09 15:08:36;;;;;;;7.60;6.10;;;;;;;5.94;53.29;102903.53;6229413;28;20227;-72
2023/02/09 15:12:06;;;;;;;5.87;5.07;;;;;;;5.81;53.69;102902.22;6240613;28;20224;-70
2023/02/09 15:15:27;;;;;;;9.33;6.70;;;;;;;6.11;53.30;102897.56;6233992;28;20231;-71
2023/02/09 15:18:47;;;;;;;11.80;8.10;;;;;;;6.20;52.60;102890.03;6232619;28;20903;-71
2023/02/09 15:22:12;;;;;;;8.60;7.73;;;;;;;6.21;53.25;102896.28;6244570;28;20244;-71
2023/02/09 15:25:33;;;;;;;9.70;5.97;;;;;;;6.23;52.51;102897.97;6221350;28;20302;-71
2023/02/09 15:28:54;;;;;;;9.73;6.53;;;;;;;6.22;52.88;102892.66;6232375;28;20220;-71
2023/02/09 15:32:17;;;;;;;8.50;5.80;;;;;;;5.85;53.81;102889.59;6237857;28;20320;-70
2023/02/09 15:35:39;;;;;;;11.67;7.33;;;;;;;5.79;53.90;102906.75;6226766;28;21097;-71
2023/02/09 15:39:02;;;;;;;10.43;5.67;;;;;;;5.98;53.71;102905.19;6228249;28;20232;-74
2023/02/09 15:49:40;;;;;;;8.83;5.63;;;;;;;6.07;53.80;102898.59;6244574;28;20232;-73
2023/02/09 15:53:04;;;;;;;8.07;5.93;;;;;;;5.94;54.60;102898.19;6236135;28;20319;-73
2023/02/09 15:56:27;;;;;;;8.07;5.77;;;;;;;6.37;53.12;102894.75;6242177;28;20223;-73
2023/02/09 15:59:50;;;;;;;7.03;5.03;;;;;;;5.82;54.31;102903.09;6246883;28;20240;-74
2023/02/09 16:03:15;;;;;;;10.47;6.97;;;;;;;6.08;54.10;102908.38;6236853;28;20598;-72
2023/02/09 16:06:36;;;;;;;10.87;7.03;;;;;;;5.96;53.97;102909.72;6250636;28;20240;-73
2023/02/09 16:09:57;;;;;;;8.60;6.13;;;;;;;5.97;54.08;102916.78;6243239;28;20233;-72
2023/02/09 16:13:20;;;;;;;8.17;6.00;;;;;;;5.93;54.69;102920.53;6241071;28;20257;-73